Saint-Tite-Des-Caps, Canada
Current Conditions -  °F | °C
As of 5:00 PM on Monday 20 Oct 2014 (Local Time) from CYOY Reporting Station
Few Clouds Few Clouds  
Wind Chill: 34°   Ceiling: Unl
Heat Index: 41°   Visibility: 15mi
Dew Point: 27°   Wind: 12mph
Humidity: 57%   Direction: 230°SW
Pressure: 29.87"   Gusts: 20mph
Location:  47.13°N, 70.77°W
Report Text: CYOY 202100Z 23010G17KT 15SM FEW045 FEW100 FEW220 05/M03 A2987 RMK CF1AC2CI0 SLP123
Loading
Personal Weather Stations






























Interactive Weather Map
Tropical Storm Tracking
New forecast layout! Learn more

10-Day Weather Forecast

Advertisements
Track Severe Weather on mobile